METAR Data
IDs: Format: Raw Decoded Include TAF

Data at: 1827 UTC 16 Oct 2021

ZSOF 161800Z 05002MPS 9999 SCT040 09/08 Q1034 NOSIG